sensor_id;sensor_type;location;lat;lon;timestamp;temperature;humidity
54680;DHT22;40578;53.178;5.846;2022-11-27T00:00:00;5.00;99.90
54680;DHT22;40578;53.178;5.846;2022-11-27T00:02:26;5.10;99.90
54680;DHT22;40578;53.178;5.846;2022-11-27T00:04:51;5.70;99.90
54680;DHT22;40578;53.178;5.846;2022-11-27T00:07:17;5.80;99.90
54680;DHT22;40578;53.178;5.846;2022-11-27T00:09:42;5.60;99.90
54680;DHT22;40578;53.178;5.846;2022-11-27T00:12:08;5.70;99.90
54680;DHT22;40578;53.178;5.846;2022-11-27T00:14:34;5.10;99.90
54680;DHT22;40578;53.178;5.846;2022-11-27T00:16:59;5.80;99.90
54680;DHT22;40578;53.178;5.846;2022-11-27T00:19:26;5.30;99.90
54680;DHT22;40578;53.178;5.846;2022-11-27T00:21:52;5.20;99.90
54680;DHT22;40578;53.178;5.846;2022-11-27T00:24:17;5.40;99.90
54680;DHT22;40578;53.178;5.846;2022-11-27T00:26:43;5.80;99.90
54680;DHT22;40578;53.178;5.846;2022-11-27T00:29:11;5.10;99.90
54680;DHT22;40578;53.178;5.846;2022-11-27T00:31:37;5.60;99.90
54680;DHT22;40578;53.178;5.846;2022-11-27T00:34:04;5.80;99.90
54680;DHT22;40578;53.178;5.846;2022-11-27T00:36:32;5.20;99.90
54680;DHT22;40578;53.178;5.846;2022-11-27T00:38:58;5.80;99.90
54680;DHT22;40578;53.178;5.846;2022-11-27T00:41:26;5.70;99.90
54680;DHT22;40578;53.178;5.846;2022-11-27T00:43:52;5.20;99.90
54680;DHT22;40578;53.178;5.846;2022-11-27T00:46:24;5.80;99.90
54680;DHT22;40578;53.178;5.846;2022-11-27T00:48:51;5.10;99.90
54680;DHT22;40578;53.178;5.846;2022-11-27T00:51:19;5.10;99.90
54680;DHT22;40578;53.178;5.846;2022-11-27T00:53:46;5.30;99.90
54680;DHT22;40578;53.178;5.846;2022-11-27T00:56:29;5.50;99.90
54680;DHT22;40578;53.178;5.846;2022-11-27T00:58:55;5.30;99.90
54680;DHT22;40578;53.178;5.846;2022-11-27T01:01:23;5.70;99.90
54680;DHT22;40578;53.178;5.846;2022-11-27T01:03:50;5.70;99.90
54680;DHT22;40578;53.178;5.846;2022-11-27T01:06:17;5.60;99.90
54680;DHT22;40578;53.178;5.846;2022-11-27T01:08:43;5.10;99.90
54680;DHT22;40578;53.178;5.846;2022-11-27T01:11:14;5.60;99.90
54680;DHT22;40578;53.178;5.846;2022-11-27T01:13:40;5.40;99.90
54680;DHT22;40578;53.178;5.846;2022-11-27T01:16:10;5.40;99.90
54680;DHT22;40578;53.178;5.846;2022-11-27T01:18:37;5.60;99.90
54680;DHT22;40578;53.178;5.846;2022-11-27T01:21:04;5.30;99.90
54680;DHT22;40578;53.178;5.846;2022-11-27T01:23:30;5.30;99.90
54680;DHT22;40578;53.178;5.846;2022-11-27T01:25:58;5.30;99.90
54680;DHT22;40578;53.178;5.846;2022-11-27T01:28:24;5.50;99.90
54680;DHT22;40578;53.178;5.846;2022-11-27T01:30:50;5.20;99.90
54680;DHT22;40578;53.178;5.846;2022-11-27T01:33:16;5.30;99.90
54680;DHT22;40578;53.178;5.846;2022-11-27T01:35:42;5.20;99.90
54680;DHT22;40578;53.178;5.846;2022-11-27T01:38:08;5.50;99.90
54680;DHT22;40578;53.178;5.846;2022-11-27T01:40:34;5.40;99.90
54680;DHT22;40578;53.178;5.846;2022-11-27T01:43:02;5.20;99.90
54680;DHT22;40578;53.178;5.846;2022-11-27T01:45:29;5.20;99.90
54680;DHT22;40578;53.178;5.846;2022-11-27T01:47:58;5.60;99.90
54680;DHT22;40578;53.178;5.846;2022-11-27T01:50:31;5.70;99.90
54680;DHT22;40578;53.178;5.846;2022-11-27T01:53:14;5.30;99.90
54680;DHT22;40578;53.178;5.846;2022-11-27T01:55:46;5.20;99.90
54680;DHT22;40578;53.178;5.846;2022-11-27T01:58:19;5.70;99.90
54680;DHT22;40578;53.178;5.846;2022-11-27T02:00:46;5.20;99.90
54680;DHT22;40578;53.178;5.846;2022-11-27T02:03:12;5.70;99.90
54680;DHT22;40578;53.178;5.846;2022-11-27T02:05:38;5.80;99.90
54680;DHT22;40578;53.178;5.846;2022-11-27T02:08:10;5.30;99.90
54680;DHT22;40578;53.178;5.846;2022-11-27T02:11:00;5.70;99.90
54680;DHT22;40578;53.178;5.846;2022-11-27T02:16:34;5.20;99.90
54680;DHT22;40578;53.178;5.846;2022-11-27T02:19:42;5.70;99.90
54680;DHT22;40578;53.178;5.846;2022-11-27T02:28:51;5.40;99.90
54680;DHT22;40578;53.178;5.846;2022-11-27T02:31:34;5.80;99.90
54680;DHT22;40578;53.178;5.846;2022-11-27T02:34:23;5.70;99.90
54680;DHT22;40578;53.178;5.846;2022-11-27T02:37:01;5.40;99.90
54680;DHT22;40578;53.178;5.846;2022-11-27T02:39:36;5.50;99.90
54680;DHT22;40578;53.178;5.846;2022-11-27T02:42:17;5.80;99.90
54680;DHT22;40578;53.178;5.846;2022-11-27T02:44:59;5.80;99.90
54680;DHT22;40578;53.178;5.846;2022-11-27T02:47:27;5.80;99.90
54680;DHT22;40578;53.178;5.846;2022-11-27T02:49:53;5.80;99.90
54680;DHT22;40578;53.178;5.846;2022-11-27T02:52:23;5.30;99.90
54680;DHT22;40578;53.178;5.846;2022-11-27T02:54:51;5.70;99.90
54680;DHT22;40578;53.178;5.846;2022-11-27T02:57:20;5.80;99.90
54680;DHT22;40578;53.178;5.846;2022-11-27T02:59:48;5.40;99.90
54680;DHT22;40578;53.178;5.846;2022-11-27T03:02:18;5.60;99.90
54680;DHT22;40578;53.178;5.846;2022-11-27T03:04:51;5.40;99.90
54680;DHT22;40578;53.178;5.846;2022-11-27T03:07:34;5.50;99.90
54680;DHT22;40578;53.178;5.846;2022-11-27T03:10:06;5.60;99.90
54680;DHT22;40578;53.178;5.846;2022-11-27T03:12:33;5.80;99.90
54680;DHT22;40578;53.178;5.846;2022-11-27T03:14:59;5.80;99.90
54680;DHT22;40578;53.178;5.846;2022-11-27T03:17:44;5.40;99.90
54680;DHT22;40578;53.178;5.846;2022-11-27T03:20:37;5.60;99.90
54680;DHT22;40578;53.178;5.846;2022-11-27T03:23:03;5.80;99.90
54680;DHT22;40578;53.178;5.846;2022-11-27T03:25:29;5.70;99.90
54680;DHT22;40578;53.178;5.846;2022-11-27T03:27:58;5.80;99.90
54680;DHT22;40578;53.178;5.846;2022-11-27T03:30:24;5.60;99.90
54680;DHT22;40578;53.178;5.846;2022-11-27T03:32:50;5.30;99.90
54680;DHT22;40578;53.178;5.846;2022-11-27T03:35:19;5.80;99.90
54680;DHT22;40578;53.178;5.846;2022-11-27T03:37:46;5.70;99.90
54680;DHT22;40578;53.178;5.846;2022-11-27T03:40:13;5.40;99.90
54680;DHT22;40578;53.178;5.846;2022-11-27T03:53:41;5.50;99.90
54680;DHT22;40578;53.178;5.846;2022-11-27T03:59:10;5.30;99.90
54680;DHT22;40578;53.178;5.846;2022-11-27T04:01:39;5.60;99.90
54680;DHT22;40578;53.178;5.846;2022-11-27T04:04:05;5.60;99.90
54680;DHT22;40578;53.178;5.846;2022-11-27T04:06:31;5.60;99.90
54680;DHT22;40578;53.178;5.846;2022-11-27T04:08:56;5.40;99.90
54680;DHT22;40578;53.178;5.846;2022-11-27T04:11:22;5.20;99.90
54680;DHT22;40578;53.178;5.846;2022-11-27T04:13:48;5.20;99.90
54680;DHT22;40578;53.178;5.846;2022-11-27T04:16:13;5.60;99.90
54680;DHT22;40578;53.178;5.846;2022-11-27T04:18:39;5.30;99.90
54680;DHT22;40578;53.178;5.846;2022-11-27T04:21:05;5.40;99.90
54680;DHT22;40578;53.178;5.846;2022-11-27T04:23:30;5.30;99.90
54680;DHT22;40578;53.178;5.846;2022-11-27T04:25:56;5.50;99.90
54680;DHT22;40578;53.178;5.846;2022-11-27T04:28:22;5.30;99.90
54680;DHT22;40578;53.178;5.846;2022-11-27T04:30:51;5.40;99.90
54680;DHT22;40578;53.178;5.846;2022-11-27T04:33:18;5.20;99.90
54680;DHT22;40578;53.178;5.846;2022-11-27T04:35:43;5.50;99.90
54680;DHT22;40578;53.178;5.846;2022-11-27T04:38:11;5.30;99.90
54680;DHT22;40578;53.178;5.846;2022-11-27T04:40:36;5.30;99.90
54680;DHT22;40578;53.178;5.846;2022-11-27T04:43:02;5.50;99.90
54680;DHT22;40578;53.178;5.846;2022-11-27T04:45:27;5.40;99.90
54680;DHT22;40578;53.178;5.846;2022-11-27T04:47:53;5.50;99.90
54680;DHT22;40578;53.178;5.846;2022-11-27T04:50:19;5.50;99.90
54680;DHT22;40578;53.178;5.846;2022-11-27T04:52:44;5.50;99.90
54680;DHT22;40578;53.178;5.846;2022-11-27T04:55:10;5.30;99.90
54680;DHT22;40578;53.178;5.846;2022-11-27T04:57:36;5.40;99.90
54680;DHT22;40578;53.178;5.846;2022-11-27T05:00:03;5.30;99.90
54680;DHT22;40578;53.178;5.846;2022-11-27T05:02:29;5.30;99.90
54680;DHT22;40578;53.178;5.846;2022-11-27T05:04:54;5.30;99.90
54680;DHT22;40578;53.178;5.846;2022-11-27T05:07:20;5.40;99.90
54680;DHT22;40578;53.178;5.846;2022-11-27T05:09:46;5.30;99.90
54680;DHT22;40578;53.178;5.846;2022-11-27T05:12:11;5.50;99.90
54680;DHT22;40578;53.178;5.846;2022-11-27T05:14:37;5.60;99.90
54680;DHT22;40578;53.178;5.846;2022-11-27T05:17:02;5.30;99.90
54680;DHT22;40578;53.178;5.846;2022-11-27T05:19:30;5.40;99.90
54680;DHT22;40578;53.178;5.846;2022-11-27T05:21:56;5.30;99.90
54680;DHT22;40578;53.178;5.846;2022-11-27T05:24:24;5.40;99.90
54680;DHT22;40578;53.178;5.846;2022-11-27T05:26:51;5.30;99.90
54680;DHT22;40578;53.178;5.846;2022-11-27T05:29:17;5.60;99.90
54680;DHT22;40578;53.178;5.846;2022-11-27T05:31:44;5.30;99.90
54680;DHT22;40578;53.178;5.846;2022-11-27T05:34:11;5.30;99.90
54680;DHT22;40578;53.178;5.846;2022-11-27T05:36:36;5.50;99.90
54680;DHT22;40578;53.178;5.846;2022-11-27T05:39:04;5.50;99.90
54680;DHT22;40578;53.178;5.846;2022-11-27T05:41:31;5.40;99.90
54680;DHT22;40578;53.178;5.846;2022-11-27T05:43:57;5.40;99.90
54680;DHT22;40578;53.178;5.846;2022-11-27T05:46:23;5.70;99.90
54680;DHT22;40578;53.178;5.846;2022-11-27T05:48:48;5.50;99.90
54680;DHT22;40578;53.178;5.846;2022-11-27T05:51:15;5.50;99.90
54680;DHT22;40578;53.178;5.846;2022-11-27T05:53:41;5.30;99.90
54680;DHT22;40578;53.178;5.846;2022-11-27T05:56:10;5.50;99.90
54680;DHT22;40578;53.178;5.846;2022-11-27T05:58:37;5.40;99.90
54680;DHT22;40578;53.178;5.846;2022-11-27T06:01:03;5.50;99.90
54680;DHT22;40578;53.178;5.846;2022-11-27T06:03:29;5.50;99.90
54680;DHT22;40578;53.178;5.846;2022-11-27T06:05:55;5.30;99.90
54680;DHT22;40578;53.178;5.846;2022-11-27T06:08:20;5.40;99.90
54680;DHT22;40578;53.178;5.846;2022-11-27T06:10:47;5.30;99.90
54680;DHT22;40578;53.178;5.846;2022-11-27T06:13:13;5.40;99.90
54680;DHT22;40578;53.178;5.846;2022-11-27T06:15:39;5.30;99.90
54680;DHT22;40578;53.178;5.846;2022-11-27T06:18:06;6.50;99.90
54680;DHT22;40578;53.178;5.846;2022-11-27T06:20:32;5.40;99.90
54680;DHT22;40578;53.178;5.846;2022-11-27T06:22:58;5.50;99.90
54680;DHT22;40578;53.178;5.846;2022-11-27T06:25:25;5.40;99.90
54680;DHT22;40578;53.178;5.846;2022-11-27T06:27:51;5.40;99.90
54680;DHT22;40578;53.178;5.846;2022-11-27T06:30:17;5.30;99.90
54680;DHT22;40578;53.178;5.846;2022-11-27T06:32:43;5.30;99.90
54680;DHT22;40578;53.178;5.846;2022-11-27T06:35:09;5.40;99.90
54680;DHT22;40578;53.178;5.846;2022-11-27T06:37:35;5.60;99.90
54680;DHT22;40578;53.178;5.846;2022-11-27T06:40:01;5.40;99.90
54680;DHT22;40578;53.178;5.846;2022-11-27T06:42:30;5.40;99.90
54680;DHT22;40578;53.178;5.846;2022-11-27T06:44:56;5.30;99.90
54680;DHT22;40578;53.178;5.846;2022-11-27T06:47:23;5.50;99.90
54680;DHT22;40578;53.178;5.846;2022-11-27T06:49:49;5.80;99.90
54680;DHT22;40578;53.178;5.846;2022-11-27T06:52:14;5.40;99.90
54680;DHT22;40578;53.178;5.846;2022-11-27T06:54:40;5.40;99.90
54680;DHT22;40578;53.178;5.846;2022-11-27T06:57:06;5.60;99.90
54680;DHT22;40578;53.178;5.846;2022-11-27T06:59:32;5.40;99.90
54680;DHT22;40578;53.178;5.846;2022-11-27T07:01:58;5.40;99.90
54680;DHT22;40578;53.178;5.846;2022-11-27T07:04:23;5.40;99.90
54680;DHT22;40578;53.178;5.846;2022-11-27T07:06:49;5.40;99.90
54680;DHT22;40578;53.178;5.846;2022-11-27T07:09:15;5.40;99.90
54680;DHT22;40578;53.178;5.846;2022-11-27T07:11:40;5.40;99.90
54680;DHT22;40578;53.178;5.846;2022-11-27T07:14:06;5.30;99.90
54680;DHT22;40578;53.178;5.846;2022-11-27T07:16:34;5.60;99.90
54680;DHT22;40578;53.178;5.846;2022-11-27T07:19:03;5.40;99.90
54680;DHT22;40578;53.178;5.846;2022-11-27T07:21:29;5.80;99.90
54680;DHT22;40578;53.178;5.846;2022-11-27T07:23:55;5.40;99.90
54680;DHT22;40578;53.178;5.846;2022-11-27T07:26:26;5.60;99.90
54680;DHT22;40578;53.178;5.846;2022-11-27T07:28:52;5.50;99.90
54680;DHT22;40578;53.178;5.846;2022-11-27T07:31:21;5.60;99.90
54680;DHT22;40578;53.178;5.846;2022-11-27T07:33:47;5.40;99.90
54680;DHT22;40578;53.178;5.846;2022-11-27T07:36:15;5.40;99.90
54680;DHT22;40578;53.178;5.846;2022-11-27T07:38:43;5.60;99.90
54680;DHT22;40578;53.178;5.846;2022-11-27T07:41:09;5.60;99.90
54680;DHT22;40578;53.178;5.846;2022-11-27T07:43:35;5.60;99.90
54680;DHT22;40578;53.178;5.846;2022-11-27T07:46:27;5.50;99.90
54680;DHT22;40578;53.178;5.846;2022-11-27T07:48:54;5.40;99.90
54680;DHT22;40578;53.178;5.846;2022-11-27T07:51:20;5.40;99.90
54680;DHT22;40578;53.178;5.846;2022-11-27T07:53:47;5.60;99.90
54680;DHT22;40578;53.178;5.846;2022-11-27T07:56:18;5.60;99.90
54680;DHT22;40578;53.178;5.846;2022-11-27T07:58:44;5.50;99.90
54680;DHT22;40578;53.178;5.846;2022-11-27T08:01:13;5.60;99.90
54680;DHT22;40578;53.178;5.846;2022-11-27T08:03:39;5.60;99.90
54680;DHT22;40578;53.178;5.846;2022-11-27T08:06:14;5.60;99.90
54680;DHT22;40578;53.178;5.846;2022-11-27T08:08:40;5.50;99.90
54680;DHT22;40578;53.178;5.846;2022-11-27T08:11:05;5.50;99.90
54680;DHT22;40578;53.178;5.846;2022-11-27T08:13:31;5.50;99.90
54680;DHT22;40578;53.178;5.846;2022-11-27T08:16:00;5.60;99.90
54680;DHT22;40578;53.178;5.846;2022-11-27T08:18:25;5.60;99.90
54680;DHT22;40578;53.178;5.846;2022-11-27T08:20:51;5.40;99.90
54680;DHT22;40578;53.178;5.846;2022-11-27T08:23:17;5.50;99.90
54680;DHT22;40578;53.178;5.846;2022-11-27T08:25:42;5.50;99.90
54680;DHT22;40578;53.178;5.846;2022-11-27T08:28:10;5.40;99.90
54680;DHT22;40578;53.178;5.846;2022-11-27T08:30:35;5.60;99.90
54680;DHT22;40578;53.178;5.846;2022-11-27T08:33:01;5.60;99.90
54680;DHT22;40578;53.178;5.846;2022-11-27T08:35:27;5.60;99.90
54680;DHT22;40578;53.178;5.846;2022-11-27T08:37:52;5.70;99.90
54680;DHT22;40578;53.178;5.846;2022-11-27T08:40:18;5.60;99.90
54680;DHT22;40578;53.178;5.846;2022-11-27T08:42:44;5.60;99.90
54680;DHT22;40578;53.178;5.846;2022-11-27T08:45:09;5.40;99.90
54680;DHT22;40578;53.178;5.846;2022-11-27T08:47:35;5.50;99.90
54680;DHT22;40578;53.178;5.846;2022-11-27T08:50:01;5.70;99.90
54680;DHT22;40578;53.178;5.846;2022-11-27T08:52:26;5.40;99.90
54680;DHT22;40578;53.178;5.846;2022-11-27T08:54:52;5.70;99.90
54680;DHT22;40578;53.178;5.846;2022-11-27T08:57:17;5.60;99.90
54680;DHT22;40578;53.178;5.846;2022-11-27T08:59:43;5.70;99.90
54680;DHT22;40578;53.178;5.846;2022-11-27T09:02:11;5.50;99.90
54680;DHT22;40578;53.178;5.846;2022-11-27T09:04:37;5.50;99.90
54680;DHT22;40578;53.178;5.846;2022-11-27T09:07:04;5.40;99.90
54680;DHT22;40578;53.178;5.846;2022-11-27T09:09:29;5.60;99.90
54680;DHT22;40578;53.178;5.846;2022-11-27T09:11:55;5.50;99.90
54680;DHT22;40578;53.178;5.846;2022-11-27T09:14:21;5.80;99.90
54680;DHT22;40578;53.178;5.846;2022-11-27T09:16:47;5.70;99.90
54680;DHT22;40578;53.178;5.846;2022-11-27T09:19:12;5.40;99.90
54680;DHT22;40578;53.178;5.846;2022-11-27T09:21:38;5.50;99.90
54680;DHT22;40578;53.178;5.846;2022-11-27T09:24:04;5.40;99.90
54680;DHT22;40578;53.178;5.846;2022-11-27T09:26:30;5.80;99.90
54680;DHT22;40578;53.178;5.846;2022-11-27T09:28:57;5.60;99.90
54680;DHT22;40578;53.178;5.846;2022-11-27T09:31:23;5.70;99.90
54680;DHT22;40578;53.178;5.846;2022-11-27T09:33:49;5.50;99.90
54680;DHT22;40578;53.178;5.846;2022-11-27T09:36:17;5.60;99.90
54680;DHT22;40578;53.178;5.846;2022-11-27T09:38:43;5.50;99.90
54680;DHT22;40578;53.178;5.846;2022-11-27T09:43:42;5.80;99.90
54680;DHT22;40578;53.178;5.846;2022-11-27T09:46:13;5.80;99.90
54680;DHT22;40578;53.178;5.846;2022-11-27T09:48:42;5.60;99.90
54680;DHT22;40578;53.178;5.846;2022-11-27T09:51:18;5.70;99.90
54680;DHT22;40578;53.178;5.846;2022-11-27T09:53:51;5.50;99.90
54680;DHT22;40578;53.178;5.846;2022-11-27T09:56:19;5.60;99.90
54680;DHT22;40578;53.178;5.846;2022-11-27T09:58:58;5.90;99.90
54680;DHT22;40578;53.178;5.846;2022-11-27T10:01:29;5.60;99.90
54680;DHT22;40578;53.178;5.846;2022-11-27T10:03:55;5.80;99.90
54680;DHT22;40578;53.178;5.846;2022-11-27T10:12:14;5.50;99.90
54680;DHT22;40578;53.178;5.846;2022-11-27T10:17:39;5.90;99.90
54680;DHT22;40578;53.178;5.846;2022-11-27T10:23:38;6.00;99.90
54680;DHT22;40578;53.178;5.846;2022-11-27T10:29:13;5.70;99.90
54680;DHT22;40578;53.178;5.846;2022-11-27T10:31:54;5.90;99.90
54680;DHT22;40578;53.178;5.846;2022-11-27T10:35:04;5.70;99.90
54680;DHT22;40578;53.178;5.846;2022-11-27T10:37:35;6.10;99.90
54680;DHT22;40578;53.178;5.846;2022-11-27T10:45:41;6.00;99.90
54680;DHT22;40578;53.178;5.846;2022-11-27T10:48:10;5.70;99.90
54680;DHT22;40578;53.178;5.846;2022-11-27T10:50:36;6.00;99.90
54680;DHT22;40578;53.178;5.846;2022-11-27T10:53:07;6.10;99.90
54680;DHT22;40578;53.178;5.846;2022-11-27T11:01:08;6.20;99.90
54680;DHT22;40578;53.178;5.846;2022-11-27T11:03:35;5.90;99.90
54680;DHT22;40578;53.178;5.846;2022-11-27T11:06:07;5.80;99.90
54680;DHT22;40578;53.178;5.846;2022-11-27T11:08:33;6.20;99.90
54680;DHT22;40578;53.178;5.846;2022-11-27T11:11:04;5.90;99.90
54680;DHT22;40578;53.178;5.846;2022-11-27T11:13:52;6.30;99.90
54680;DHT22;40578;53.178;5.846;2022-11-27T11:16:21;5.90;99.90
54680;DHT22;40578;53.178;5.846;2022-11-27T11:18:52;6.30;99.90
54680;DHT22;40578;53.178;5.846;2022-11-27T11:21:28;6.00;99.90
54680;DHT22;40578;53.178;5.846;2022-11-27T11:24:06;6.00;99.90
54680;DHT22;40578;53.178;5.846;2022-11-27T11:26:40;6.00;99.90
54680;DHT22;40578;53.178;5.846;2022-11-27T11:30:02;6.40;99.90
54680;DHT22;40578;53.178;5.846;2022-11-27T11:34:58;6.00;99.90
54680;DHT22;40578;53.178;5.846;2022-11-27T11:37:27;6.20;99.90
54680;DHT22;40578;53.178;5.846;2022-11-27T11:40:19;6.10;99.90
54680;DHT22;40578;53.178;5.846;2022-11-27T11:42:59;6.40;99.90
54680;DHT22;40578;53.178;5.846;2022-11-27T11:45:28;6.10;99.90
54680;DHT22;40578;53.178;5.846;2022-11-27T11:47:58;6.30;99.90
54680;DHT22;40578;53.178;5.846;2022-11-27T11:50:41;6.30;99.90
54680;DHT22;40578;53.178;5.846;2022-11-27T11:53:32;6.10;99.90
54680;DHT22;40578;53.178;5.846;2022-11-27T11:56:30;6.50;99.90
54680;DHT22;40578;53.178;5.846;2022-11-27T11:59:06;6.20;99.90
54680;DHT22;40578;53.178;5.846;2022-11-27T12:02:00;6.40;99.90
54680;DHT22;40578;53.178;5.846;2022-11-27T12:12:54;6.50;99.90
54680;DHT22;40578;53.178;5.846;2022-11-27T12:15:31;6.50;99.90
54680;DHT22;40578;53.178;5.846;2022-11-27T12:18:22;6.30;99.90
54680;DHT22;40578;53.178;5.846;2022-11-27T12:21:12;6.60;99.90
54680;DHT22;40578;53.178;5.846;2022-11-27T12:26:38;6.60;99.90
54680;DHT22;40578;53.178;5.846;2022-11-27T12:32:17;6.50;99.90
54680;DHT22;40578;53.178;5.846;2022-11-27T12:35:02;6.40;99.90
54680;DHT22;40578;53.178;5.846;2022-11-27T12:45:44;6.30;99.90
54680;DHT22;40578;53.178;5.846;2022-11-27T12:48:34;6.30;99.90
54680;DHT22;40578;53.178;5.846;2022-11-27T12:54:00;6.50;99.90
54680;DHT22;40578;53.178;5.846;2022-11-27T12:56:45;6.60;99.90
54680;DHT22;40578;53.178;5.846;2022-11-27T12:59:37;6.30;99.90
54680;DHT22;40578;53.178;5.846;2022-11-27T13:02:37;6.40;99.90
54680;DHT22;40578;53.178;5.846;2022-11-27T13:05:29;6.70;99.90
54680;DHT22;40578;53.178;5.846;2022-11-27T13:13:36;6.70;99.90
54680;DHT22;40578;53.178;5.846;2022-11-27T13:18:59;6.70;99.90
54680;DHT22;40578;53.178;5.846;2022-11-27T13:21:29;6.60;99.90
54680;DHT22;40578;53.178;5.846;2022-11-27T13:23:59;6.60;99.90
54680;DHT22;40578;53.178;5.846;2022-11-27T13:26:53;6.40;99.90
54680;DHT22;40578;53.178;5.846;2022-11-27T13:29:26;6.30;99.90
54680;DHT22;40578;53.178;5.846;2022-11-27T13:31:55;6.60;99.90
54680;DHT22;40578;53.178;5.846;2022-11-27T13:34:23;6.50;99.90
54680;DHT22;40578;53.178;5.846;2022-11-27T13:36:58;6.40;99.90
54680;DHT22;40578;53.178;5.846;2022-11-27T13:39:34;6.60;99.90
54680;DHT22;40578;53.178;5.846;2022-11-27T13:44:30;6.60;99.90
54680;DHT22;40578;53.178;5.846;2022-11-27T13:47:08;6.30;99.90
54680;DHT22;40578;53.178;5.846;2022-11-27T13:49:35;6.50;99.90
54680;DHT22;40578;53.178;5.846;2022-11-27T13:52:19;6.30;99.90
54680;DHT22;40578;53.178;5.846;2022-11-27T13:55:00;6.90;99.90
54680;DHT22;40578;53.178;5.846;2022-11-27T13:57:27;6.60;99.90
54680;DHT22;40578;53.178;5.846;2022-11-27T14:00:00;6.30;99.90
54680;DHT22;40578;53.178;5.846;2022-11-27T14:02:42;6.30;99.90
54680;DHT22;40578;53.178;5.846;2022-11-27T14:05:10;6.40;99.90
54680;DHT22;40578;53.178;5.846;2022-11-27T14:07:39;6.20;99.90
54680;DHT22;40578;53.178;5.846;2022-11-27T14:10:10;6.30;99.90
54680;DHT22;40578;53.178;5.846;2022-11-27T14:12:36;6.20;99.90
54680;DHT22;40578;53.178;5.846;2022-11-27T14:17:44;6.20;99.90
54680;DHT22;40578;53.178;5.846;2022-11-27T14:27:42;6.30;99.90
54680;DHT22;40578;53.178;5.846;2022-11-27T14:30:38;6.40;99.90
54680;DHT22;40578;53.178;5.846;2022-11-27T14:33:18;6.10;99.90
54680;DHT22;40578;53.178;5.846;2022-11-27T14:35:53;6.10;99.90
54680;DHT22;40578;53.178;5.846;2022-11-27T14:38:20;6.10;99.90
54680;DHT22;40578;53.178;5.846;2022-11-27T14:40:46;6.10;99.90
54680;DHT22;40578;53.178;5.846;2022-11-27T14:43:18;6.40;99.90
54680;DHT22;40578;53.178;5.846;2022-11-27T14:45:47;6.10;99.90
54680;DHT22;40578;53.178;5.846;2022-11-27T14:48:22;6.20;99.90
54680;DHT22;40578;53.178;5.846;2022-11-27T14:50:48;6.10;99.90
54680;DHT22;40578;53.178;5.846;2022-11-27T14:53:17;6.20;99.90
54680;DHT22;40578;53.178;5.846;2022-11-27T14:55:43;6.40;99.90
54680;DHT22;40578;53.178;5.846;2022-11-27T14:58:17;6.10;99.90
54680;DHT22;40578;53.178;5.846;2022-11-27T15:01:03;6.10;99.90
54680;DHT22;40578;53.178;5.846;2022-11-27T15:03:30;6.40;99.90
54680;DHT22;40578;53.178;5.846;2022-11-27T15:06:04;6.10;99.90
54680;DHT22;40578;53.178;5.846;2022-11-27T15:08:35;6.30;99.90
54680;DHT22;40578;53.178;5.846;2022-11-27T15:11:03;6.00;99.90
54680;DHT22;40578;53.178;5.846;2022-11-27T15:13:34;6.10;99.90
54680;DHT22;40578;53.178;5.846;2022-11-27T15:16:06;6.30;99.90
54680;DHT22;40578;53.178;5.846;2022-11-27T15:18:37;6.10;99.90
54680;DHT22;40578;53.178;5.846;2022-11-27T15:21:09;6.00;99.90
54680;DHT22;40578;53.178;5.846;2022-11-27T15:23:36;5.90;99.90
54680;DHT22;40578;53.178;5.846;2022-11-27T15:28:39;6.10;99.90
54680;DHT22;40578;53.178;5.846;2022-11-27T15:31:25;6.00;99.90
54680;DHT22;40578;53.178;5.846;2022-11-27T15:36:36;6.30;99.90
54680;DHT22;40578;53.178;5.846;2022-11-27T15:39:24;6.00;99.90
54680;DHT22;40578;53.178;5.846;2022-11-27T15:41:58;6.40;99.90
54680;DHT22;40578;53.178;5.846;2022-11-27T15:44:26;6.20;99.90
54680;DHT22;40578;53.178;5.846;2022-11-27T15:46:53;7.40;99.90
54680;DHT22;40578;53.178;5.846;2022-11-27T15:49:20;6.30;99.90
54680;DHT22;40578;53.178;5.846;2022-11-27T15:51:47;6.20;99.90
54680;DHT22;40578;53.178;5.846;2022-11-27T15:54:13;6.30;99.90
54680;DHT22;40578;53.178;5.846;2022-11-27T15:56:38;6.30;99.90
54680;DHT22;40578;53.178;5.846;2022-11-27T15:59:04;6.20;99.90
54680;DHT22;40578;53.178;5.846;2022-11-27T16:01:30;6.30;99.90
54680;DHT22;40578;53.178;5.846;2022-11-27T16:03:56;6.20;99.90
54680;DHT22;40578;53.178;5.846;2022-11-27T16:06:22;6.30;99.90
54680;DHT22;40578;53.178;5.846;2022-11-27T16:08:56;6.30;99.90
54680;DHT22;40578;53.178;5.846;2022-11-27T16:11:23;6.30;99.90
54680;DHT22;40578;53.178;5.846;2022-11-27T16:13:49;6.30;99.90
54680;DHT22;40578;53.178;5.846;2022-11-27T16:16:15;6.30;99.90
54680;DHT22;40578;53.178;5.846;2022-11-27T16:18:41;6.30;99.90
54680;DHT22;40578;53.178;5.846;2022-11-27T16:21:09;6.30;99.90
54680;DHT22;40578;53.178;5.846;2022-11-27T16:23:36;6.00;99.90
54680;DHT22;40578;53.178;5.846;2022-11-27T16:26:02;6.30;99.90
54680;DHT22;40578;53.178;5.846;2022-11-27T16:28:29;6.00;99.90
54680;DHT22;40578;53.178;5.846;2022-11-27T16:30:57;6.30;99.90
54680;DHT22;40578;53.178;5.846;2022-11-27T16:33:27;6.00;99.90
54680;DHT22;40578;53.178;5.846;2022-11-27T16:35:52;6.00;99.90
54680;DHT22;40578;53.178;5.846;2022-11-27T16:38:18;6.00;99.90
54680;DHT22;40578;53.178;5.846;2022-11-27T16:40:45;6.10;99.90
54680;DHT22;40578;53.178;5.846;2022-11-27T16:43:11;6.30;99.90
54680;DHT22;40578;53.178;5.846;2022-11-27T16:45:37;6.10;99.90
54680;DHT22;40578;53.178;5.846;2022-11-27T16:48:03;6.00;99.90
54680;DHT22;40578;53.178;5.846;2022-11-27T16:50:29;6.00;99.90
54680;DHT22;40578;53.178;5.846;2022-11-27T16:52:56;6.10;99.90
54680;DHT22;40578;53.178;5.846;2022-11-27T16:55:23;6.10;99.90
54680;DHT22;40578;53.178;5.846;2022-11-27T16:57:49;6.00;99.90
54680;DHT22;40578;53.178;5.846;2022-11-27T17:00:14;6.40;99.90
54680;DHT22;40578;53.178;5.846;2022-11-27T17:02:40;6.10;99.90
54680;DHT22;40578;53.178;5.846;2022-11-27T17:05:06;6.20;99.90
54680;DHT22;40578;53.178;5.846;2022-11-27T17:07:32;6.30;99.90
54680;DHT22;40578;53.178;5.846;2022-11-27T17:09:58;6.00;99.90
54680;DHT22;40578;53.178;5.846;2022-11-27T17:12:24;6.10;99.90
54680;DHT22;40578;53.178;5.846;2022-11-27T17:14:49;6.30;99.90
54680;DHT22;40578;53.178;5.846;2022-11-27T17:17:15;6.40;99.90
54680;DHT22;40578;53.178;5.846;2022-11-27T17:19:40;6.00;99.90
54680;DHT22;40578;53.178;5.846;2022-11-27T17:22:06;6.80;99.90
54680;DHT22;40578;53.178;5.846;2022-11-27T17:24:32;6.40;99.90
54680;DHT22;40578;53.178;5.846;2022-11-27T17:27:00;6.10;99.90
54680;DHT22;40578;53.178;5.846;2022-11-27T17:29:26;6.30;99.90
54680;DHT22;40578;53.178;5.846;2022-11-27T17:31:52;6.30;99.90
54680;DHT22;40578;53.178;5.846;2022-11-27T17:34:19;6.30;99.90
54680;DHT22;40578;53.178;5.846;2022-11-27T17:36:46;6.30;99.90
54680;DHT22;40578;53.178;5.846;2022-11-27T17:39:15;6.10;99.90
54680;DHT22;40578;53.178;5.846;2022-11-27T17:41:41;6.00;99.90
54680;DHT22;40578;53.178;5.846;2022-11-27T17:44:09;6.40;99.90
54680;DHT22;40578;53.178;5.846;2022-11-27T17:46:35;6.30;99.90